Taganrog Yuzhny Airport

Jump to: basic info | weather | comments

Related pages: nearby airports | nearby navaids | notams | map

Basic information (top)

Codes: TGK URRT
Location: lon 47.200001, lat 38.849998, elev 118 ft / 36 m msl
Status: medium_airport

Weather (top)

Current conditions for Rostov-na-Donu Airport 40nm (73km) E (rec'd 2015/03/05 06:00Z):

URRR 050600Z 14002MPS 4600 -SNRA BR BKN004 OVC016 01/00 Q1016 22290042 TEMPO 1000 OVC003 RMK QBB140 MAST OBSC

Airport forecast for Rostov-na-Donu Airport 40nm (73km) E (rec'd 2015/03/05 06:23Z):

TAF URRR 050459Z 0506/0606 29005G10MPS 9999 BKN007 BKN020CB 530005 
      TEMPO 0506/0509 VRB02MPS 1000 SHSNRA BR BKN003 BKN020CB 
      TEMPO 0509/0516 31008G13MPS 2100 -SHRASN

Latest comments (top)

dgs: gsdg [read]

More... (top)

See also NOTAMs and nearby airports and navaids, or visit the Taganrog Yuzhny Airport page at the main OurAirports website..